createdAt,value
2023-02-07T00:01:43.761Z,4.80
2023-02-07T00:04:11.287Z,4.80
2023-02-07T00:06:41.543Z,4.80
2023-02-07T00:09:11.035Z,4.70
2023-02-07T00:11:41.504Z,4.70
2023-02-07T00:14:12.720Z,4.70
2023-02-07T00:16:40.928Z,4.70
2023-02-07T00:19:08.598Z,4.70
2023-02-07T00:21:37.995Z,4.70
2023-02-07T00:24:07.928Z,4.70
2023-02-07T00:26:37.306Z,4.70
2023-02-07T00:29:05.095Z,4.70
2023-02-07T00:31:39.552Z,4.70
2023-02-07T00:34:10.700Z,4.70
2023-02-07T00:36:41.320Z,4.70
2023-02-07T00:39:15.581Z,4.70
2023-02-07T00:41:43.754Z,4.70
2023-02-07T00:44:11.905Z,4.70
2023-02-07T00:46:39.564Z,4.70
2023-02-07T00:49:07.616Z,4.70
2023-02-07T00:51:37.427Z,4.70
2023-02-07T00:54:07.067Z,4.60
2023-02-07T00:56:34.548Z,4.60
2023-02-07T00:59:08.807Z,4.60
2023-02-07T01:01:36.104Z,4.60
2023-02-07T01:04:08.173Z,4.60
2023-02-07T01:06:37.824Z,4.60
2023-02-07T01:09:07.356Z,4.60
2023-02-07T01:11:34.601Z,4.60
2023-02-07T01:14:02.392Z,4.60
2023-02-07T01:16:38.080Z,4.60
2023-02-07T01:19:08.569Z,4.60
2023-02-07T01:21:36.576Z,4.50
2023-02-07T01:24:08.917Z,4.50
2023-02-07T01:26:39.570Z,4.50
2023-02-07T01:29:07.781Z,4.50
2023-02-07T01:31:37.283Z,4.40
2023-02-07T01:34:05.836Z,4.40
2023-02-07T01:36:35.489Z,4.30
2023-02-07T01:39:03.988Z,4.30
2023-02-07T01:41:33.505Z,4.30
2023-02-07T01:44:28.348Z,4.30
2023-02-07T01:46:56.629Z,4.30
2023-02-07T01:49:30.818Z,4.30
2023-02-07T01:52:07.273Z,4.30
2023-02-07T01:54:37.340Z,4.20
2023-02-07T01:57:11.377Z,4.20
2023-02-07T01:59:44.186Z,4.10
2023-02-07T02:02:16.832Z,4.10
2023-02-07T02:04:46.429Z,4.10
2023-02-07T02:07:19.027Z,4.10
2023-02-07T02:09:46.150Z,4.10
2023-02-07T02:12:38.229Z,4.10
2023-02-07T02:15:37.777Z,4.10
2023-02-07T02:18:23.404Z,4.00
2023-02-07T02:21:02.567Z,4.00
2023-02-07T02:24:15.004Z,4.00
2023-02-07T02:27:03.504Z,4.00
2023-02-07T02:30:01.449Z,4.00
2023-02-07T02:32:49.698Z,4.00
2023-02-07T02:35:30.242Z,4.00
2023-02-07T02:38:05.676Z,3.90
2023-02-07T02:40:50.368Z,4.00
2023-02-07T02:43:51.936Z,4.00
2023-02-07T02:46:23.307Z,3.90
2023-02-07T02:48:56.392Z,3.90
2023-02-07T02:51:23.742Z,3.90
2023-02-07T02:53:58.904Z,3.90
2023-02-07T02:56:40.592Z,3.80
2023-02-07T02:59:13.249Z,3.80
2023-02-07T03:01:49.346Z,3.80
2023-02-07T03:04:47.634Z,3.80
2023-02-07T03:07:21.778Z,3.70
2023-02-07T03:10:02.062Z,3.70
2023-02-07T03:12:47.763Z,3.60
2023-02-07T03:15:21.297Z,3.60
2023-02-07T03:17:57.046Z,3.60
2023-02-07T03:20:39.310Z,3.60
2023-02-07T03:23:11.433Z,3.50
2023-02-07T03:25:44.611Z,3.50
2023-02-07T03:28:16.653Z,3.50
2023-02-07T03:30:50.656Z,3.40
2023-02-07T03:33:21.799Z,3.40
2023-02-07T03:36:02.991Z,3.40
2023-02-07T03:38:30.715Z,3.30
2023-02-07T03:41:07.820Z,3.30
2023-02-07T03:43:40.199Z,3.30
2023-02-07T03:46:10.484Z,3.20
2023-02-07T03:48:37.939Z,3.20
2023-02-07T03:51:07.463Z,3.20
2023-02-07T03:53:34.672Z,3.20
2023-02-07T03:56:04.221Z,3.20
2023-02-07T03:58:31.324Z,3.20
2023-02-07T04:01:00.633Z,3.10
2023-02-07T04:03:30.009Z,3.20
2023-02-07T04:05:57.279Z,3.20
2023-02-07T04:08:29.278Z,3.20
2023-02-07T04:11:01.401Z,3.20
2023-02-07T04:13:29.695Z,3.20
2023-02-07T04:16:02.023Z,3.20
2023-02-07T04:18:29.184Z,3.10
2023-02-07T04:21:05.222Z,3.20
2023-02-07T04:23:37.637Z,3.20
2023-02-07T04:26:09.145Z,3.20
2023-02-07T04:28:38.459Z,3.20
2023-02-07T04:31:05.681Z,3.10
2023-02-07T04:33:35.446Z,3.10
2023-02-07T04:36:04.651Z,3.10
2023-02-07T04:38:31.836Z,3.10
2023-02-07T04:41:06.290Z,3.10
2023-02-07T04:43:38.419Z,3.10
2023-02-07T04:46:07.110Z,3.10
2023-02-07T04:48:36.471Z,3.10
2023-02-07T04:51:04.150Z,3.10
2023-02-07T04:53:31.273Z,3.10
2023-02-07T04:56:01.000Z,3.10
2023-02-07T04:58:30.697Z,3.10
2023-02-07T05:00:57.904Z,3.00
2023-02-07T05:03:27.272Z,3.00
2023-02-07T05:05:55.514Z,3.00
2023-02-07T05:08:23.098Z,3.00
2023-02-07T05:10:55.692Z,3.00
2023-02-07T05:13:23.873Z,3.00
2023-02-07T05:15:51.432Z,3.00
2023-02-07T05:18:18.656Z,2.90
2023-02-07T05:20:45.796Z,2.90
2023-02-07T05:23:16.209Z,2.90
2023-02-07T05:25:43.636Z,2.90
2023-02-07T05:28:11.028Z,2.90
2023-02-07T05:30:38.247Z,2.90
2023-02-07T05:33:10.716Z,2.90
2023-02-07T05:35:43.340Z,2.90
2023-02-07T05:38:16.333Z,2.90
2023-02-07T05:40:44.522Z,2.90
2023-02-07T05:43:16.602Z,2.80
2023-02-07T05:45:45.744Z,2.80
2023-02-07T05:48:13.499Z,2.80
2023-02-07T05:50:43.665Z,2.80
2023-02-07T05:53:13.032Z,2.80
2023-02-07T05:55:40.485Z,2.80
2023-02-07T05:58:10.350Z,2.80
2023-02-07T06:00:42.377Z,2.80
2023-02-07T06:03:14.118Z,2.80
2023-02-07T06:05:43.586Z,2.80
2023-02-07T06:08:13.031Z,2.80
2023-02-07T06:10:40.435Z,2.80
2023-02-07T06:13:10.105Z,2.70
2023-02-07T06:15:41.777Z,2.70
2023-02-07T06:18:09.048Z,2.70
2023-02-07T06:20:38.243Z,2.70
2023-02-07T06:23:05.403Z,2.70
2023-02-07T06:25:35.067Z,2.60
2023-02-07T06:28:04.984Z,2.60
2023-02-07T06:30:34.229Z,2.60
2023-02-07T06:33:06.571Z,2.50
2023-02-07T06:35:33.671Z,2.50
2023-02-07T06:38:03.385Z,2.40
2023-02-07T06:40:30.562Z,2.40
2023-02-07T06:43:02.350Z,2.30
2023-02-07T06:45:31.984Z,2.30
2023-02-07T06:48:01.793Z,2.30
2023-02-07T06:50:29.453Z,2.30
2023-02-07T06:53:02.214Z,2.30
2023-02-07T06:55:38.128Z,2.20
2023-02-07T06:58:06.641Z,2.20
2023-02-07T07:00:36.561Z,2.20
2023-02-07T07:03:04.453Z,2.20
2023-02-07T07:05:36.538Z,2.20
2023-02-07T07:08:06.208Z,2.20
2023-02-07T07:10:33.638Z,2.20
2023-02-07T07:13:03.160Z,2.10
2023-02-07T07:15:32.716Z,2.10
2023-02-07T07:18:04.517Z,2.10
2023-02-07T07:20:31.768Z,2.00
2023-02-07T07:23:01.394Z,2.00
2023-02-07T07:25:33.222Z,2.00
2023-02-07T07:28:02.652Z,2.00
2023-02-07T07:30:34.580Z,2.00
2023-02-07T07:33:04.215Z,2.00
2023-02-07T07:35:33.837Z,2.00
2023-02-07T07:38:05.341Z,2.00
2023-02-07T07:40:34.522Z,1.90
2023-02-07T07:43:01.965Z,1.90
2023-02-07T07:45:33.834Z,1.90
2023-02-07T07:48:05.317Z,1.90
2023-02-07T07:50:32.486Z,1.90
2023-02-07T07:52:59.648Z,1.90
2023-02-07T07:55:31.165Z,1.80
2023-02-07T07:58:00.399Z,1.80
2023-02-07T08:00:27.638Z,1.80
2023-02-07T08:02:57.751Z,1.80
2023-02-07T08:05:24.956Z,1.80
2023-02-07T08:07:54.220Z,1.90
2023-02-07T08:10:23.877Z,1.90
2023-02-07T08:12:51.114Z,1.90
2023-02-07T08:15:18.461Z,1.90
2023-02-07T08:17:45.645Z,2.00
2023-02-07T08:20:15.376Z,2.00
2023-02-07T08:22:42.684Z,2.00
2023-02-07T08:25:10.000Z,2.00
2023-02-07T08:27:37.643Z,2.10
2023-02-07T08:30:12.095Z,2.10
2023-02-07T08:32:41.482Z,2.10
2023-02-07T08:35:13.722Z,2.20
2023-02-07T08:37:43.594Z,2.20
2023-02-07T08:40:11.317Z,2.20
2023-02-07T08:42:43.224Z,2.20
2023-02-07T08:45:12.989Z,2.30
2023-02-07T08:47:42.305Z,2.40
2023-02-07T08:50:10.094Z,2.40
2023-02-07T08:52:37.366Z,2.40
2023-02-07T08:55:10.209Z,2.40
2023-02-07T08:57:44.457Z,2.50
2023-02-07T09:00:14.578Z,2.50
2023-02-07T09:02:45.671Z,2.50
2023-02-07T09:05:17.521Z,2.60
2023-02-07T09:07:46.852Z,2.60
2023-02-07T09:10:15.534Z,2.60
2023-02-07T09:12:45.062Z,2.70
2023-02-07T09:15:14.383Z,2.70
2023-02-07T09:17:43.724Z,2.80
2023-02-07T09:20:11.451Z,2.80
2023-02-07T09:22:59.810Z,2.90
2023-02-07T09:25:27.003Z,2.90
2023-02-07T09:27:58.884Z,2.90
2023-02-07T09:30:26.102Z,3.00
2023-02-07T09:32:59.719Z,3.10
2023-02-07T09:35:27.340Z,3.10
2023-02-07T09:37:55.395Z,3.20
2023-02-07T09:40:23.008Z,3.20
2023-02-07T09:43:29.445Z,3.30
2023-02-07T09:46:06.374Z,3.30
2023-02-07T09:48:41.405Z,3.30
2023-02-07T09:51:13.390Z,3.40
2023-02-07T09:53:50.546Z,3.40
2023-02-07T09:56:26.416Z,3.50
2023-02-07T09:59:22.246Z,3.50
2023-02-07T10:01:53.850Z,3.60
2023-02-07T10:04:24.601Z,3.60
2023-02-07T10:06:59.553Z,3.70
2023-02-07T10:09:37.967Z,3.70
2023-02-07T10:12:13.258Z,3.80
2023-02-07T10:15:11.014Z,3.80
2023-02-07T10:17:52.944Z,3.90
2023-02-07T10:20:35.305Z,3.90
2023-02-07T10:23:35.768Z,3.90
2023-02-07T10:26:14.887Z,4.00
2023-02-07T10:29:04.133Z,4.00
2023-02-07T10:31:37.784Z,4.10
2023-02-07T10:34:14.820Z,4.10
2023-02-07T10:36:51.714Z,4.20
2023-02-07T10:39:29.409Z,4.20
2023-02-07T10:42:01.242Z,4.30
2023-02-07T10:44:30.988Z,4.30
2023-02-07T10:47:03.963Z,4.30
2023-02-07T10:49:34.607Z,4.40
2023-02-07T10:52:20.775Z,4.40
2023-02-07T10:54:56.207Z,4.50
2023-02-07T10:57:27.993Z,4.50
2023-02-07T11:00:11.910Z,4.50
2023-02-07T11:02:48.947Z,4.50
2023-02-07T11:05:16.784Z,4.60
2023-02-07T11:07:56.828Z,4.60
2023-02-07T11:10:32.265Z,4.60
2023-02-07T11:13:00.814Z,4.70
2023-02-07T11:15:39.836Z,4.70
2023-02-07T11:18:08.335Z,4.80
2023-02-07T11:20:38.954Z,4.80
2023-02-07T11:23:15.119Z,4.80
2023-02-07T11:25:53.087Z,4.90
2023-02-07T11:28:27.920Z,4.90
2023-02-07T11:31:01.310Z,4.90
2023-02-07T11:33:31.065Z,5.00
2023-02-07T11:36:34.217Z,5.00
2023-02-07T11:39:01.908Z,5.10
2023-02-07T11:41:31.644Z,5.10
2023-02-07T11:44:02.230Z,5.10
2023-02-07T11:47:02.618Z,5.10
2023-02-07T11:49:39.116Z,5.10
2023-02-07T11:52:09.158Z,5.20
2023-02-07T11:54:41.403Z,5.20
2023-02-07T11:57:15.753Z,5.20
2023-02-07T12:00:05.382Z,5.30
2023-02-07T12:02:35.619Z,5.40
2023-02-07T12:05:26.955Z,5.40
2023-02-07T12:08:01.761Z,5.50
2023-02-07T12:10:36.821Z,5.50
2023-02-07T12:13:14.214Z,5.50
2023-02-07T12:15:48.023Z,5.50
2023-02-07T12:18:47.760Z,5.50
2023-02-07T12:21:28.490Z,5.60
2023-02-07T12:24:18.884Z,5.60
2023-02-07T12:27:15.757Z,5.60
2023-02-07T12:30:35.884Z,5.70
2023-02-07T12:33:34.379Z,5.70
2023-02-07T12:36:22.484Z,5.70
2023-02-07T12:39:22.537Z,5.70
2023-02-07T12:42:14.319Z,5.80
2023-02-07T12:44:51.480Z,5.80
2023-02-07T12:47:37.271Z,5.80
2023-02-07T12:50:16.343Z,5.90
2023-02-07T12:52:46.191Z,5.90
2023-02-07T12:55:13.556Z,5.90
2023-02-07T12:57:48.922Z,5.90
2023-02-07T13:00:42.084Z,6.00
2023-02-07T13:03:30.322Z,6.00
2023-02-07T13:06:39.756Z,6.10
2023-02-07T13:09:12.313Z,6.10
2023-02-07T13:12:03.471Z,6.10
2023-02-07T13:14:51.752Z,6.10
2023-02-07T13:17:21.024Z,6.20
2023-02-07T13:20:11.044Z,6.20
2023-02-07T13:23:00.571Z,6.20
2023-02-07T13:25:35.609Z,6.10
2023-02-07T13:28:13.554Z,6.10
2023-02-07T13:30:41.828Z,6.20
2023-02-07T13:33:25.708Z,6.20
2023-02-07T13:35:57.423Z,6.20
2023-02-07T13:38:46.390Z,6.20
2023-02-07T13:41:29.504Z,6.20
2023-02-07T13:44:10.241Z,6.20
2023-02-07T13:46:40.538Z,6.30
2023-02-07T13:49:17.063Z,6.30
2023-02-07T13:52:12.168Z,6.40
2023-02-07T13:55:24.118Z,6.40
2023-02-07T13:58:11.315Z,6.50
2023-02-07T14:01:00.355Z,6.50
2023-02-07T14:03:31.856Z,6.50
2023-02-07T14:06:22.441Z,6.50
2023-02-07T14:09:01.918Z,6.50
2023-02-07T14:11:43.961Z,6.60
2023-02-07T14:14:24.868Z,6.60
2023-02-07T14:16:56.489Z,6.60
2023-02-07T14:19:43.156Z,6.70
2023-02-07T14:22:18.573Z,6.70
2023-02-07T14:24:59.227Z,6.70
2023-02-07T14:27:38.705Z,6.70
2023-02-07T14:30:19.994Z,6.80
2023-02-07T14:33:14.367Z,6.80
2023-02-07T14:35:46.599Z,6.80
2023-02-07T14:38:30.286Z,6.80
2023-02-07T14:41:10.722Z,6.80
2023-02-07T14:43:59.699Z,6.80
2023-02-07T14:46:46.944Z,6.80
2023-02-07T14:49:20.645Z,6.80
2023-02-07T14:52:04.691Z,6.80
2023-02-07T14:54:38.709Z,6.90
2023-02-07T14:57:18.999Z,6.90
2023-02-07T15:00:00.446Z,6.90
2023-02-07T15:02:39.507Z,6.90
2023-02-07T15:05:26.018Z,6.90
2023-02-07T15:08:06.262Z,7.00
2023-02-07T15:10:37.805Z,7.00
2023-02-07T15:13:32.998Z,7.00
2023-02-07T15:16:07.116Z,7.00
2023-02-07T15:18:41.262Z,7.00
2023-02-07T15:21:21.315Z,7.00
2023-02-07T15:24:14.490Z,7.00
2023-02-07T15:26:50.141Z,7.10
2023-02-07T15:29:25.325Z,7.10
2023-02-07T15:31:52.814Z,7.10
2023-02-07T15:34:31.767Z,7.10
2023-02-07T15:37:11.943Z,7.10
2023-02-07T15:39:39.208Z,7.10
2023-02-07T15:42:07.897Z,7.10
2023-02-07T15:44:53.240Z,7.10
2023-02-07T15:47:28.801Z,7.10
2023-02-07T15:50:05.350Z,7.10
2023-02-07T15:52:41.602Z,7.10
2023-02-07T15:55:43.012Z,7.10
2023-02-07T15:58:27.107Z,7.10
2023-02-07T16:01:03.184Z,7.10
2023-02-07T16:03:35.216Z,7.10
2023-02-07T16:06:30.971Z,7.10
2023-02-07T16:09:04.408Z,7.10
2023-02-07T16:11:37.902Z,7.10
2023-02-07T16:14:22.511Z,7.10
2023-02-07T16:16:55.175Z,7.10
2023-02-07T16:19:28.133Z,7.10
2023-02-07T16:22:07.356Z,7.10
2023-02-07T16:24:37.275Z,7.10
2023-02-07T16:27:08.897Z,7.00
2023-02-07T16:29:41.109Z,7.00
2023-02-07T16:32:12.009Z,7.00
2023-02-07T16:34:53.860Z,7.00
2023-02-07T16:37:27.265Z,7.00
2023-02-07T16:39:56.801Z,7.00
2023-02-07T16:42:26.294Z,6.90
2023-02-07T16:44:55.711Z,6.90
2023-02-07T16:47:25.461Z,6.90
2023-02-07T16:49:52.656Z,6.90
2023-02-07T16:52:21.997Z,6.80
2023-02-07T16:54:55.827Z,6.80
2023-02-07T16:57:23.064Z,6.70
2023-02-07T16:59:50.253Z,6.70
2023-02-07T17:02:20.458Z,6.60
2023-02-07T17:04:49.820Z,6.60
2023-02-07T17:07:17.080Z,6.60
2023-02-07T17:09:46.368Z,6.50
2023-02-07T17:12:14.532Z,6.50
2023-02-07T17:14:43.791Z,6.50
2023-02-07T17:17:14.586Z,6.50
2023-02-07T17:19:47.494Z,6.40
2023-02-07T17:22:15.307Z,6.40
2023-02-07T17:24:44.682Z,6.40
2023-02-07T17:27:11.886Z,6.30
2023-02-07T17:29:39.072Z,6.30
2023-02-07T17:32:06.493Z,6.30
2023-02-07T17:34:33.616Z,6.20
2023-02-07T17:37:07.756Z,6.20
2023-02-07T17:39:34.886Z,6.10
2023-02-07T17:42:04.481Z,6.10
2023-02-07T17:44:35.451Z,6.00
2023-02-07T17:47:05.213Z,6.00
2023-02-07T17:49:34.812Z,5.90
2023-02-07T17:52:04.173Z,5.90
2023-02-07T17:54:38.663Z,5.90
2023-02-07T17:57:05.796Z,5.90
2023-02-07T17:59:37.562Z,5.90
2023-02-07T18:02:09.060Z,5.80
2023-02-07T18:04:38.570Z,5.80
2023-02-07T18:07:05.735Z,5.80
2023-02-07T18:09:37.353Z,5.80
2023-02-07T18:12:05.851Z,5.70
2023-02-07T18:14:32.945Z,5.70
2023-02-07T18:17:00.102Z,5.70
2023-02-07T18:19:32.575Z,5.70
2023-02-07T18:22:01.845Z,5.60
2023-02-07T18:24:31.266Z,5.60
2023-02-07T18:26:58.330Z,5.60
2023-02-07T18:29:25.489Z,5.50
2023-02-07T18:31:54.889Z,5.50
2023-02-07T18:34:22.054Z,5.50
2023-02-07T18:36:49.173Z,5.50
2023-02-07T18:39:18.726Z,5.40
2023-02-07T18:41:48.469Z,5.40
2023-02-07T18:44:17.752Z,5.40
2023-02-07T18:46:47.372Z,5.40
2023-02-07T18:49:19.332Z,5.30
2023-02-07T18:51:46.503Z,5.30
2023-02-07T18:54:19.140Z,5.30
2023-02-07T18:56:52.271Z,5.20
2023-02-07T18:59:23.455Z,5.20
2023-02-07T19:01:53.503Z,5.20
2023-02-07T19:04:21.589Z,5.10
2023-02-07T19:06:52.222Z,5.10
2023-02-07T19:09:23.474Z,5.10
2023-02-07T19:11:52.063Z,5.00
2023-02-07T19:14:28.454Z,5.00
2023-02-07T19:17:01.063Z,5.00
2023-02-07T19:19:31.842Z,5.00
2023-02-07T19:21:59.355Z,4.90
2023-02-07T19:24:29.874Z,4.90
2023-02-07T19:26:58.633Z,4.90
2023-02-07T19:29:29.978Z,4.90
2023-02-07T19:32:06.517Z,4.90
2023-02-07T19:34:33.849Z,4.90
2023-02-07T19:37:03.756Z,4.90
2023-02-07T19:39:33.706Z,4.80
2023-02-07T19:42:00.830Z,4.80
2023-02-07T19:44:30.056Z,4.80
2023-02-07T19:46:57.171Z,4.80
2023-02-07T19:49:24.400Z,4.80
2023-02-07T19:51:54.082Z,4.70
2023-02-07T19:54:23.481Z,4.70
2023-02-07T19:56:50.636Z,4.70
2023-02-07T19:59:19.930Z,4.60
2023-02-07T20:01:51.814Z,4.60
2023-02-07T20:04:19.047Z,4.60
2023-02-07T20:06:46.239Z,4.60
2023-02-07T20:09:13.379Z,4.60
2023-02-07T20:11:42.626Z,4.50
2023-02-07T20:14:13.054Z,4.50
2023-02-07T20:16:40.701Z,4.50
2023-02-07T20:19:08.653Z,4.50
2023-02-07T20:21:38.435Z,4.50
2023-02-07T20:24:05.974Z,4.50
2023-02-07T20:26:43.492Z,4.40
2023-02-07T20:29:13.325Z,4.40
2023-02-07T20:31:48.804Z,4.40
2023-02-07T20:34:18.478Z,4.40
2023-02-07T20:36:47.935Z,4.40
2023-02-07T20:39:17.650Z,4.40
2023-02-07T20:41:46.868Z,4.30
2023-02-07T20:44:22.617Z,4.30
2023-02-07T20:46:53.288Z,4.30
2023-02-07T20:49:27.398Z,4.20
2023-02-07T20:51:59.394Z,4.10
2023-02-07T20:54:35.133Z,4.00
2023-02-07T20:57:02.358Z,4.00
2023-02-07T20:59:33.009Z,3.90
2023-02-07T21:02:02.778Z,3.90
2023-02-07T21:04:31.423Z,3.80
2023-02-07T21:07:01.109Z,3.70
2023-02-07T21:09:31.565Z,3.70
2023-02-07T21:12:01.333Z,3.60
2023-02-07T21:14:31.912Z,3.60
2023-02-07T21:17:02.044Z,3.60
2023-02-07T21:19:29.517Z,3.50
2023-02-07T21:21:56.620Z,3.40
2023-02-07T21:24:28.042Z,3.40
2023-02-07T21:26:58.369Z,3.40
2023-02-07T21:29:28.419Z,3.40
2023-02-07T21:31:57.930Z,3.40
2023-02-07T21:34:27.303Z,3.40
2023-02-07T21:36:54.459Z,3.40
2023-02-07T21:39:23.533Z,3.30
2023-02-07T21:41:52.802Z,3.20
2023-02-07T21:44:22.037Z,3.20
2023-02-07T21:46:52.374Z,3.20
2023-02-07T21:49:22.311Z,3.20
2023-02-07T21:51:55.128Z,3.10
2023-02-07T21:54:22.353Z,3.10
2023-02-07T21:56:52.049Z,3.10
2023-02-07T21:59:22.865Z,3.00
2023-02-07T22:01:52.728Z,3.00
2023-02-07T22:04:22.333Z,3.00
2023-02-07T22:06:49.670Z,2.90
2023-02-07T22:09:18.961Z,2.90
2023-02-07T22:11:46.119Z,2.90
2023-02-07T22:14:16.202Z,2.90
2023-02-07T22:16:43.823Z,2.80
2023-02-07T22:19:13.576Z,2.80
2023-02-07T22:21:44.321Z,2.80
2023-02-07T22:24:14.140Z,2.80
2023-02-07T22:26:41.384Z,2.80
2023-02-07T22:29:13.337Z,2.80
2023-02-07T22:31:41.728Z,2.80
2023-02-07T22:34:11.816Z,2.70
2023-02-07T22:36:43.291Z,2.70
2023-02-07T22:39:15.212Z,2.70
2023-02-07T22:41:45.205Z,2.60
2023-02-07T22:44:12.799Z,2.60
2023-02-07T22:46:43.474Z,2.60
2023-02-07T22:49:12.899Z,2.50
2023-02-07T22:51:40.132Z,2.50
2023-02-07T22:54:15.819Z,2.50
2023-02-07T22:56:44.960Z,2.40
2023-02-07T22:59:12.232Z,2.40
2023-02-07T23:01:43.737Z,2.40
2023-02-07T23:04:18.240Z,2.30
2023-02-07T23:06:48.202Z,2.30
2023-02-07T23:09:16.492Z,2.30
2023-02-07T23:11:43.655Z,2.30
2023-02-07T23:14:13.093Z,2.30
2023-02-07T23:16:42.410Z,2.30
2023-02-07T23:19:17.974Z,2.30
2023-02-07T23:21:47.509Z,2.30
2023-02-07T23:24:14.665Z,2.30
2023-02-07T23:26:43.836Z,2.30
2023-02-07T23:29:13.186Z,2.30
2023-02-07T23:31:44.925Z,2.30
2023-02-07T23:34:17.769Z,2.20
2023-02-07T23:36:49.538Z,2.20
2023-02-07T23:39:18.943Z,2.20
2023-02-07T23:41:46.064Z,2.20
2023-02-07T23:44:16.412Z,2.20
2023-02-07T23:46:48.470Z,2.10
2023-02-07T23:49:20.270Z,2.10
2023-02-07T23:51:52.405Z,2.10
2023-02-07T23:54:19.527Z,2.10
2023-02-07T23:56:49.646Z,2.10
2023-02-07T23:59:16.763Z,2.10
